Airport Name : Ataturk

Other Name : Istanbul

ICAO : LTBA

IATA : IST

FAA :

Latitude : 40.976922

Longitude : 28.814606

Country : Turkey

Local Date and Time : 02 Jun 2020 17:15

 

TAF (Terminal Aerodrome Forecast)

TAF LTBA 021040Z 0212/0318 22008KT 9999 SCT027 BKN080 TEMPO 0213/0217 -TSRA FEW022CB BKN030 PROB30 TEMPO 0305/0309 -TSRA FEW022CB BKN030 BECMG 0312/0316 CAVOK

 

METAR (METeorological Aerodrome Report)

LTBA 021350Z 01008KT 9999 FEW023TCU BKN035 20/11 Q1008 NOSIG RMK RWY17 36008KT RWY05 02008KT 340V060 RWY23 01009KT 330V030

LTBA 021320Z 36010KT 330V040 9999 FEW023TCU BKN035 20/12 Q1008 NOSIG RMK RWY17 01008KT 330V050 RWY05 03011KT RWY23 01009KT 330V060

LTBA 021250Z 23006KT 9999 FEW022TCU BKN030 BKN080 20/09 Q1008 NOSIG RMK RWY17 19003KT 150V240 RWY05 25006KT 210V270 RWY23 24005KT 200V280

LTBA 021220Z 19006KT 160V220 9999 SCT030 BKN080 19/11 Q1008 NOSIG RMK RWY17 20008KT 170V230 RWY05 22006KT 200V260 RWY23 21007KT 190V250

LTBA 021150Z 19008KT 9999 SCT030 BKN080 20/11 Q1008 NOSIG RMK RWY17 20008KT 160V230 RWY05 22007KT 190V250 RWY23 21007KT 180V240

LTBA 021120Z 20008KT 160V240 9999 SCT030 BKN080 20/11 Q1008 NOSIG RMK RWY17L 18007KT 140V210 RWY05 21007KT 170V240 RWY23 21008KT

LTBA 021050Z 18008KT 150V220 9999 SCT030 BKN070 20/11 Q1008 NOSIG RMK RWY17L 20008KT RWY05 20007KT 170V230 RWY23 19007KT

LTBA 021020Z 17008KT 140V200 9999 SCT030 BKN070 19/11 Q1008 BECMG 30010KT

To Charter a Jet Click here.